sensor_id;sensor_type;location;lat;lon;timestamp;temperature;humidity
22379;DHT22;11357;49.990;7.370;2023-10-19T00:00:37;14.20;86.20
22379;DHT22;11357;49.990;7.370;2023-10-19T00:03:06;14.20;86.30
22379;DHT22;11357;49.990;7.370;2023-10-19T00:05:33;14.30;86.30
22379;DHT22;11357;49.990;7.370;2023-10-19T00:08:02;14.30;86.40
22379;DHT22;11357;49.990;7.370;2023-10-19T00:10:54;14.20;86.60
22379;DHT22;11357;49.990;7.370;2023-10-19T00:13:39;14.30;86.60
22379;DHT22;11357;49.990;7.370;2023-10-19T00:16:08;14.30;86.80
22379;DHT22;11357;49.990;7.370;2023-10-19T00:18:42;14.30;87.00
22379;DHT22;11357;49.990;7.370;2023-10-19T00:21:08;14.30;87.00
22379;DHT22;11357;49.990;7.370;2023-10-19T00:23:56;14.30;87.10
22379;DHT22;11357;49.990;7.370;2023-10-19T00:26:23;14.30;87.30
22379;DHT22;11357;49.990;7.370;2023-10-19T00:28:52;14.30;87.40
22379;DHT22;11357;49.990;7.370;2023-10-19T00:31:21;14.40;87.60
22379;DHT22;11357;49.990;7.370;2023-10-19T00:33:47;14.40;87.70
22379;DHT22;11357;49.990;7.370;2023-10-19T00:36:16;14.40;87.90
22379;DHT22;11357;49.990;7.370;2023-10-19T00:38:46;14.40;88.00
22379;DHT22;11357;49.990;7.370;2023-10-19T00:41:15;14.40;88.10
22379;DHT22;11357;49.990;7.370;2023-10-19T00:43:49;14.40;88.20
22379;DHT22;11357;49.990;7.370;2023-10-19T00:46:18;14.40;88.30
22379;DHT22;11357;49.990;7.370;2023-10-19T00:48:49;14.40;88.40
22379;DHT22;11357;49.990;7.370;2023-10-19T00:51:17;14.50;88.50
22379;DHT22;11357;49.990;7.370;2023-10-19T00:54:16;14.50;88.60
22379;DHT22;11357;49.990;7.370;2023-10-19T00:56:51;14.40;88.60
22379;DHT22;11357;49.990;7.370;2023-10-19T00:59:19;14.50;88.50
22379;DHT22;11357;49.990;7.370;2023-10-19T01:01:55;14.50;88.70
22379;DHT22;11357;49.990;7.370;2023-10-19T01:04:30;14.50;88.60
22379;DHT22;11357;49.990;7.370;2023-10-19T01:06:58;14.50;89.40
22379;DHT22;11357;49.990;7.370;2023-10-19T01:09:38;14.60;88.80
22379;DHT22;11357;49.990;7.370;2023-10-19T01:12:04;14.60;88.90
22379;DHT22;11357;49.990;7.370;2023-10-19T01:17:36;14.60;89.80
22379;DHT22;11357;49.990;7.370;2023-10-19T01:20:13;14.70;89.00
22379;DHT22;11357;49.990;7.370;2023-10-19T01:22:49;14.70;89.10
22379;DHT22;11357;49.990;7.370;2023-10-19T01:25:19;14.70;88.90
22379;DHT22;11357;49.990;7.370;2023-10-19T01:27:49;14.70;89.00
22379;DHT22;11357;49.990;7.370;2023-10-19T01:30:20;14.70;89.10
22379;DHT22;11357;49.990;7.370;2023-10-19T01:32:45;14.70;89.90
22379;DHT22;11357;49.990;7.370;2023-10-19T01:35:11;14.70;89.20
22379;DHT22;11357;49.990;7.370;2023-10-19T01:37:37;14.70;89.30
22379;DHT22;11357;49.990;7.370;2023-10-19T01:40:04;14.80;89.40
22379;DHT22;11357;49.990;7.370;2023-10-19T01:42:30;14.70;89.40
22379;DHT22;11357;49.990;7.370;2023-10-19T01:44:56;14.70;89.50
22379;DHT22;11357;49.990;7.370;2023-10-19T01:47:22;14.80;89.50
22379;DHT22;11357;49.990;7.370;2023-10-19T01:49:48;14.80;89.60
22379;DHT22;11357;49.990;7.370;2023-10-19T01:52:18;14.80;89.50
22379;DHT22;11357;49.990;7.370;2023-10-19T01:54:43;14.80;89.40
22379;DHT22;11357;49.990;7.370;2023-10-19T01:57:09;14.80;89.40
22379;DHT22;11357;49.990;7.370;2023-10-19T01:59:35;14.90;89.50
22379;DHT22;11357;49.990;7.370;2023-10-19T02:02:01;14.80;89.40
22379;DHT22;11357;49.990;7.370;2023-10-19T02:04:28;14.80;89.50
22379;DHT22;11357;49.990;7.370;2023-10-19T02:06:53;14.80;89.60
22379;DHT22;11357;49.990;7.370;2023-10-19T02:09:20;14.80;89.60
22379;DHT22;11357;49.990;7.370;2023-10-19T02:11:55;14.80;89.60
22379;DHT22;11357;49.990;7.370;2023-10-19T02:14:23;14.90;89.70
22379;DHT22;11357;49.990;7.370;2023-10-19T02:16:52;14.90;89.70
22379;DHT22;11357;49.990;7.370;2023-10-19T02:19:19;14.90;89.70
22379;DHT22;11357;49.990;7.370;2023-10-19T02:22:09;14.90;89.70
22379;DHT22;11357;49.990;7.370;2023-10-19T02:24:37;15.00;89.70
22379;DHT22;11357;49.990;7.370;2023-10-19T02:27:04;14.90;89.70
22379;DHT22;11357;49.990;7.370;2023-10-19T02:29:30;15.00;89.70
22379;DHT22;11357;49.990;7.370;2023-10-19T02:31:56;15.00;89.70
22379;DHT22;11357;49.990;7.370;2023-10-19T02:34:23;15.00;89.70
22379;DHT22;11357;49.990;7.370;2023-10-19T02:36:48;15.00;90.10
22379;DHT22;11357;49.990;7.370;2023-10-19T02:39:15;15.10;89.80
22379;DHT22;11357;49.990;7.370;2023-10-19T02:41:47;15.00;89.80
22379;DHT22;11357;49.990;7.370;2023-10-19T02:44:19;15.00;90.00
22379;DHT22;11357;49.990;7.370;2023-10-19T02:46:53;15.00;90.00
22379;DHT22;11357;49.990;7.370;2023-10-19T02:49:24;15.10;90.10
22379;DHT22;11357;49.990;7.370;2023-10-19T02:51:52;15.10;90.00
22379;DHT22;11357;49.990;7.370;2023-10-19T02:54:20;15.10;90.10
22379;DHT22;11357;49.990;7.370;2023-10-19T02:56:48;15.10;90.10
22379;DHT22;11357;49.990;7.370;2023-10-19T02:59:19;15.20;90.10
22379;DHT22;11357;49.990;7.370;2023-10-19T03:01:52;15.20;90.10
22379;DHT22;11357;49.990;7.370;2023-10-19T03:57:32;15.50;90.20
22379;DHT22;11357;49.990;7.370;2023-10-19T04:00:00;15.50;90.20
22379;DHT22;11357;49.990;7.370;2023-10-19T04:02:26;15.50;90.20
22379;DHT22;11357;49.990;7.370;2023-10-19T04:17:51;15.60;90.70
22379;DHT22;11357;49.990;7.370;2023-10-19T04:20:18;15.70;90.80
22379;DHT22;11357;49.990;7.370;2023-10-19T04:22:45;15.70;90.80
22379;DHT22;11357;49.990;7.370;2023-10-19T04:25:12;15.70;90.90
22379;DHT22;11357;49.990;7.370;2023-10-19T04:27:44;15.70;90.90
22379;DHT22;11357;49.990;7.370;2023-10-19T04:30:11;15.70;91.00
22379;DHT22;11357;49.990;7.370;2023-10-19T04:32:50;15.70;90.90
22379;DHT22;11357;49.990;7.370;2023-10-19T04:40:27;15.80;91.00
22379;DHT22;11357;49.990;7.370;2023-10-19T04:42:53;15.80;91.20
22379;DHT22;11357;49.990;7.370;2023-10-19T04:45:20;15.90;91.30
22379;DHT22;11357;49.990;7.370;2023-10-19T04:47:45;15.90;91.50
22379;DHT22;11357;49.990;7.370;2023-10-19T04:50:12;16.00;91.70
22379;DHT22;11357;49.990;7.370;2023-10-19T04:52:38;16.00;91.80
22379;DHT22;11357;49.990;7.370;2023-10-19T04:55:05;16.10;91.90
22379;DHT22;11357;49.990;7.370;2023-10-19T04:57:31;16.10;91.90
22379;DHT22;11357;49.990;7.370;2023-10-19T04:59:57;16.20;91.90
22379;DHT22;11357;49.990;7.370;2023-10-19T05:02:23;16.20;91.90
22379;DHT22;11357;49.990;7.370;2023-10-19T05:07:24;16.30;91.80
22379;DHT22;11357;49.990;7.370;2023-10-19T05:09:50;16.40;91.80
22379;DHT22;11357;49.990;7.370;2023-10-19T05:12:15;16.40;91.70
22379;DHT22;11357;49.990;7.370;2023-10-19T05:17:16;16.40;91.70
22379;DHT22;11357;49.990;7.370;2023-10-19T05:19:42;16.40;91.60
22379;DHT22;11357;49.990;7.370;2023-10-19T05:22:09;16.40;91.60
22379;DHT22;11357;49.990;7.370;2023-10-19T05:37:31;16.30;91.50
22379;DHT22;11357;49.990;7.370;2023-10-19T05:39:57;16.30;91.50
22379;DHT22;11357;49.990;7.370;2023-10-19T05:42:24;16.30;91.40
22379;DHT22;11357;49.990;7.370;2023-10-19T05:57:47;16.40;91.20
22379;DHT22;11357;49.990;7.370;2023-10-19T06:00:13;16.40;91.20
22379;DHT22;11357;49.990;7.370;2023-10-19T06:02:44;16.40;91.20
22379;DHT22;11357;49.990;7.370;2023-10-19T06:05:10;16.30;91.20
22379;DHT22;11357;49.990;7.370;2023-10-19T06:07:36;16.30;91.30
22379;DHT22;11357;49.990;7.370;2023-10-19T06:10:02;16.30;91.30
22379;DHT22;11357;49.990;7.370;2023-10-19T06:12:32;16.20;91.60
22379;DHT22;11357;49.990;7.370;2023-10-19T06:17:33;16.30;91.30
22379;DHT22;11357;49.990;7.370;2023-10-19T06:19:58;16.30;91.30
22379;DHT22;11357;49.990;7.370;2023-10-19T06:22:24;16.30;91.30
22379;DHT22;11357;49.990;7.370;2023-10-19T06:24:50;16.30;91.30
22379;DHT22;11357;49.990;7.370;2023-10-19T06:27:15;16.20;91.20
22379;DHT22;11357;49.990;7.370;2023-10-19T06:29:41;16.20;91.20
22379;DHT22;11357;49.990;7.370;2023-10-19T06:32:06;16.20;91.20
22379;DHT22;11357;49.990;7.370;2023-10-19T06:34:32;16.20;91.30
22379;DHT22;11357;49.990;7.370;2023-10-19T06:36:58;16.20;91.30
22379;DHT22;11357;49.990;7.370;2023-10-19T06:39:24;16.20;91.30
22379;DHT22;11357;49.990;7.370;2023-10-19T06:41:51;16.30;91.30
22379;DHT22;11357;49.990;7.370;2023-10-19T06:44:17;16.30;91.40
22379;DHT22;11357;49.990;7.370;2023-10-19T06:46:43;16.30;91.40
22379;DHT22;11357;49.990;7.370;2023-10-19T06:49:09;16.30;91.30
22379;DHT22;11357;49.990;7.370;2023-10-19T06:51:34;16.30;91.30
22379;DHT22;11357;49.990;7.370;2023-10-19T06:54:02;16.30;91.30
22379;DHT22;11357;49.990;7.370;2023-10-19T06:56:28;16.30;91.30
22379;DHT22;11357;49.990;7.370;2023-10-19T06:58:54;16.30;91.30
22379;DHT22;11357;49.990;7.370;2023-10-19T07:01:20;16.40;91.40
22379;DHT22;11357;49.990;7.370;2023-10-19T07:03:51;16.40;91.40
22379;DHT22;11357;49.990;7.370;2023-10-19T07:06:24;16.40;91.40
22379;DHT22;11357;49.990;7.370;2023-10-19T07:08:51;16.40;91.50
22379;DHT22;11357;49.990;7.370;2023-10-19T07:11:16;16.40;91.50
22379;DHT22;11357;49.990;7.370;2023-10-19T07:13:42;16.40;91.50
22379;DHT22;11357;49.990;7.370;2023-10-19T07:16:12;16.40;91.60
22379;DHT22;11357;49.990;7.370;2023-10-19T07:18:38;16.40;91.60
22379;DHT22;11357;49.990;7.370;2023-10-19T07:21:04;16.50;91.60
22379;DHT22;11357;49.990;7.370;2023-10-19T07:23:31;16.50;91.60
22379;DHT22;11357;49.990;7.370;2023-10-19T07:25:57;16.60;91.70
22379;DHT22;11357;49.990;7.370;2023-10-19T07:28:26;16.60;91.70
22379;DHT22;11357;49.990;7.370;2023-10-19T07:30:53;16.70;91.80
22379;DHT22;11357;49.990;7.370;2023-10-19T07:33:19;16.70;91.80
22379;DHT22;11357;49.990;7.370;2023-10-19T07:35:49;16.80;91.80
22379;DHT22;11357;49.990;7.370;2023-10-19T07:38:25;16.90;91.80
22379;DHT22;11357;49.990;7.370;2023-10-19T07:40:51;17.00;91.80
22379;DHT22;11357;49.990;7.370;2023-10-19T07:43:18;17.10;91.80
22379;DHT22;11357;49.990;7.370;2023-10-19T07:45:54;17.20;91.80
22379;DHT22;11357;49.990;7.370;2023-10-19T07:48:29;17.30;91.80
22379;DHT22;11357;49.990;7.370;2023-10-19T07:50:55;17.30;91.70
22379;DHT22;11357;49.990;7.370;2023-10-19T07:53:22;17.40;91.70
22379;DHT22;11357;49.990;7.370;2023-10-19T07:55:56;17.40;91.70
22379;DHT22;11357;49.990;7.370;2023-10-19T07:58:22;17.40;91.70
22379;DHT22;11357;49.990;7.370;2023-10-19T08:00:49;17.40;91.70
22379;DHT22;11357;49.990;7.370;2023-10-19T08:03:15;17.50;91.80
22379;DHT22;11357;49.990;7.370;2023-10-19T08:05:42;17.50;91.70
22379;DHT22;11357;49.990;7.370;2023-10-19T08:08:08;17.60;91.70
22379;DHT22;11357;49.990;7.370;2023-10-19T08:10:34;17.70;91.70
22379;DHT22;11357;49.990;7.370;2023-10-19T08:13:00;17.90;91.80
22379;DHT22;11357;49.990;7.370;2023-10-19T08:15:27;18.00;91.70
22379;DHT22;11357;49.990;7.370;2023-10-19T08:17:54;18.20;91.70
22379;DHT22;11357;49.990;7.370;2023-10-19T08:20:20;18.40;91.60
22379;DHT22;11357;49.990;7.370;2023-10-19T08:22:54;18.70;91.60
22379;DHT22;11357;49.990;7.370;2023-10-19T08:25:22;19.00;91.50
22379;DHT22;11357;49.990;7.370;2023-10-19T08:27:48;19.20;91.20
22379;DHT22;11357;49.990;7.370;2023-10-19T08:30:19;19.30;91.00
22379;DHT22;11357;49.990;7.370;2023-10-19T08:32:46;19.50;90.90
22379;DHT22;11357;49.990;7.370;2023-10-19T09:47:50;21.00;87.30
22379;DHT22;11357;49.990;7.370;2023-10-19T09:50:16;21.00;87.20
22379;DHT22;11357;49.990;7.370;2023-10-19T09:52:42;21.00;87.10
22379;DHT22;11357;49.990;7.370;2023-10-19T09:55:14;21.00;87.10
22379;DHT22;11357;49.990;7.370;2023-10-19T09:57:58;20.90;87.10
22379;DHT22;11357;49.990;7.370;2023-10-19T10:00:25;20.90;87.00
22379;DHT22;11357;49.990;7.370;2023-10-19T10:02:51;21.00;86.90
22379;DHT22;11357;49.990;7.370;2023-10-19T10:10:50;20.70;87.00
22379;DHT22;11357;49.990;7.370;2023-10-19T10:15:57;20.60;87.20
22379;DHT22;11357;49.990;7.370;2023-10-19T10:18:29;20.50;87.30
22379;DHT22;11357;49.990;7.370;2023-10-19T10:21:12;20.40;87.50
22379;DHT22;11357;49.990;7.370;2023-10-19T10:23:49;20.30;87.90
22379;DHT22;11357;49.990;7.370;2023-10-19T10:57:20;19.90;89.10
22379;DHT22;11357;49.990;7.370;2023-10-19T10:59:45;19.90;89.20
22379;DHT22;11357;49.990;7.370;2023-10-19T11:02:18;19.80;89.90
22379;DHT22;11357;49.990;7.370;2023-10-19T11:04:45;19.70;90.00
22379;DHT22;11357;49.990;7.370;2023-10-19T11:07:18;19.70;90.10
22379;DHT22;11357;49.990;7.370;2023-10-19T11:09:45;19.70;89.80
22379;DHT22;11357;49.990;7.370;2023-10-19T11:12:15;19.70;89.90
22379;DHT22;11357;49.990;7.370;2023-10-19T11:14:58;19.70;90.00
22379;DHT22;11357;49.990;7.370;2023-10-19T11:22:56;19.90;90.10
22379;DHT22;11357;49.990;7.370;2023-10-19T11:25:29;19.90;90.10
22379;DHT22;11357;49.990;7.370;2023-10-19T11:30:32;19.90;90.00
22379;DHT22;11357;49.990;7.370;2023-10-19T11:32:58;19.90;90.10
22379;DHT22;11357;49.990;7.370;2023-10-19T11:35:28;19.80;90.10
22379;DHT22;11357;49.990;7.370;2023-10-19T11:40:30;19.70;90.20
22379;DHT22;11357;49.990;7.370;2023-10-19T11:42:56;19.80;90.20
22379;DHT22;11357;49.990;7.370;2023-10-19T11:45:22;19.80;90.10
22379;DHT22;11357;49.990;7.370;2023-10-19T11:47:56;19.80;90.10
22379;DHT22;11357;49.990;7.370;2023-10-19T11:50:22;19.70;90.10
22379;DHT22;11357;49.990;7.370;2023-10-19T11:52:49;19.70;90.10
22379;DHT22;11357;49.990;7.370;2023-10-19T11:55:15;19.70;90.20
22379;DHT22;11357;49.990;7.370;2023-10-19T11:57:44;19.60;90.20
22379;DHT22;11357;49.990;7.370;2023-10-19T12:00:11;19.60;90.30
22379;DHT22;11357;49.990;7.370;2023-10-19T12:02:40;19.60;90.30
22379;DHT22;11357;49.990;7.370;2023-10-19T12:05:13;19.60;90.40
22379;DHT22;11357;49.990;7.370;2023-10-19T12:30:57;19.90;90.60
22379;DHT22;11357;49.990;7.370;2023-10-19T12:33:22;20.00;90.60
22379;DHT22;11357;49.990;7.370;2023-10-19T12:35:48;20.10;90.70
22379;DHT22;11357;49.990;7.370;2023-10-19T12:38:17;20.30;90.70
22379;DHT22;11357;49.990;7.370;2023-10-19T12:40:49;20.40;90.50
22379;DHT22;11357;49.990;7.370;2023-10-19T12:43:17;20.40;90.40
22379;DHT22;11357;49.990;7.370;2023-10-19T12:45:50;20.50;90.40
22379;DHT22;11357;49.990;7.370;2023-10-19T12:48:16;20.50;90.30
22379;DHT22;11357;49.990;7.370;2023-10-19T12:50:43;20.40;90.20
22379;DHT22;11357;49.990;7.370;2023-10-19T12:53:09;20.40;90.30
22379;DHT22;11357;49.990;7.370;2023-10-19T12:55:35;20.40;90.40
22379;DHT22;11357;49.990;7.370;2023-10-19T12:58:03;20.40;90.50
22379;DHT22;11357;49.990;7.370;2023-10-19T13:00:33;20.40;90.40
22379;DHT22;11357;49.990;7.370;2023-10-19T13:03:07;20.40;90.40
22379;DHT22;11357;49.990;7.370;2023-10-19T13:05:36;20.40;90.40
22379;DHT22;11357;49.990;7.370;2023-10-19T13:08:07;20.40;90.50
22379;DHT22;11357;49.990;7.370;2023-10-19T13:10:34;20.40;90.50
22379;DHT22;11357;49.990;7.370;2023-10-19T13:13:05;20.30;90.50
22379;DHT22;11357;49.990;7.370;2023-10-19T13:15:35;20.30;90.60
22379;DHT22;11357;49.990;7.370;2023-10-19T13:18:02;20.30;90.60
22379;DHT22;11357;49.990;7.370;2023-10-19T13:20:28;20.30;90.70
22379;DHT22;11357;49.990;7.370;2023-10-19T13:23:03;20.40;90.70
22379;DHT22;11357;49.990;7.370;2023-10-19T13:25:33;20.40;90.70
22379;DHT22;11357;49.990;7.370;2023-10-19T13:28:11;20.50;90.70
22379;DHT22;11357;49.990;7.370;2023-10-19T13:30:41;20.40;90.60
22379;DHT22;11357;49.990;7.370;2023-10-19T13:33:08;20.40;90.60
22379;DHT22;11357;49.990;7.370;2023-10-19T13:35:37;20.40;90.70
22379;DHT22;11357;49.990;7.370;2023-10-19T13:38:07;20.40;90.70
22379;DHT22;11357;49.990;7.370;2023-10-19T13:40:38;20.40;90.80
22379;DHT22;11357;49.990;7.370;2023-10-19T13:43:05;20.40;90.80
22379;DHT22;11357;49.990;7.370;2023-10-19T13:45:36;20.30;90.80
22379;DHT22;11357;49.990;7.370;2023-10-19T13:48:03;20.30;90.80
22379;DHT22;11357;49.990;7.370;2023-10-19T13:50:30;20.20;90.80
22379;DHT22;11357;49.990;7.370;2023-10-19T13:52:56;20.10;90.80
22379;DHT22;11357;49.990;7.370;2023-10-19T13:55:25;20.00;90.90
22379;DHT22;11357;49.990;7.370;2023-10-19T14:21:13;19.60;91.80
22379;DHT22;11357;49.990;7.370;2023-10-19T14:23:39;19.60;91.80
22379;DHT22;11357;49.990;7.370;2023-10-19T14:26:06;19.60;91.80
22379;DHT22;11357;49.990;7.370;2023-10-19T14:28:50;19.60;91.90
22379;DHT22;11357;49.990;7.370;2023-10-19T14:31:16;19.70;91.90
22379;DHT22;11357;49.990;7.370;2023-10-19T14:33:42;19.70;91.90
22379;DHT22;11357;49.990;7.370;2023-10-19T14:36:09;19.70;91.90
22379;DHT22;11357;49.990;7.370;2023-10-19T15:17:25;20.20;91.50
22379;DHT22;11357;49.990;7.370;2023-10-19T15:19:54;20.20;91.40
22379;DHT22;11357;49.990;7.370;2023-10-19T15:22:23;20.20;91.40
22379;DHT22;11357;49.990;7.370;2023-10-19T15:24:51;20.20;91.20
22379;DHT22;11357;49.990;7.370;2023-10-19T17:16:02;18.60;92.20
22379;DHT22;11357;49.990;7.370;2023-10-19T17:18:29;18.60;92.20
22379;DHT22;11357;49.990;7.370;2023-10-19T17:20:55;18.60;92.30
22379;DHT22;11357;49.990;7.370;2023-10-19T17:23:21;18.50;92.30
22379;DHT22;11357;49.990;7.370;2023-10-19T17:25:49;18.50;92.40
22379;DHT22;11357;49.990;7.370;2023-10-19T17:28:16;18.50;92.50
22379;DHT22;11357;49.990;7.370;2023-10-19T17:30:42;18.40;92.60
22379;DHT22;11357;49.990;7.370;2023-10-19T17:33:08;18.40;92.70
22379;DHT22;11357;49.990;7.370;2023-10-19T17:35:34;18.40;92.80
22379;DHT22;11357;49.990;7.370;2023-10-19T17:38:01;18.40;92.80
22379;DHT22;11357;49.990;7.370;2023-10-19T17:40:27;18.40;92.90
22379;DHT22;11357;49.990;7.370;2023-10-19T17:42:52;18.30;92.90
22379;DHT22;11357;49.990;7.370;2023-10-19T17:45:19;18.40;92.90
22379;DHT22;11357;49.990;7.370;2023-10-19T17:47:45;18.40;92.90
22379;DHT22;11357;49.990;7.370;2023-10-19T17:50:11;18.40;93.00
22379;DHT22;11357;49.990;7.370;2023-10-19T17:52:37;18.40;93.00
22379;DHT22;11357;49.990;7.370;2023-10-19T17:55:03;18.40;93.00
22379;DHT22;11357;49.990;7.370;2023-10-19T17:57:32;18.40;93.20
22379;DHT22;11357;49.990;7.370;2023-10-19T17:59:58;18.40;92.90
22379;DHT22;11357;49.990;7.370;2023-10-19T18:02:24;18.40;92.90
22379;DHT22;11357;49.990;7.370;2023-10-19T18:04:50;18.30;93.00
22379;DHT22;11357;49.990;7.370;2023-10-19T18:07:19;18.30;93.00
22379;DHT22;11357;49.990;7.370;2023-10-19T18:09:45;18.30;93.10
22379;DHT22;11357;49.990;7.370;2023-10-19T18:12:11;18.30;93.10
22379;DHT22;11357;49.990;7.370;2023-10-19T18:14:38;18.30;93.20
22379;DHT22;11357;49.990;7.370;2023-10-19T18:17:05;18.30;93.20
22379;DHT22;11357;49.990;7.370;2023-10-19T18:19:35;18.30;93.10
22379;DHT22;11357;49.990;7.370;2023-10-19T18:22:01;18.40;93.20
22379;DHT22;11357;49.990;7.370;2023-10-19T18:24:27;18.40;93.10
22379;DHT22;11357;49.990;7.370;2023-10-19T18:26:58;18.30;93.20
22379;DHT22;11357;49.990;7.370;2023-10-19T18:29:23;18.30;93.20
22379;DHT22;11357;49.990;7.370;2023-10-19T18:31:49;18.30;93.20
22379;DHT22;11357;49.990;7.370;2023-10-19T18:34:15;18.30;93.20
22379;DHT22;11357;49.990;7.370;2023-10-19T18:36:44;18.30;93.20
22379;DHT22;11357;49.990;7.370;2023-10-19T18:39:10;18.30;93.30
22379;DHT22;11357;49.990;7.370;2023-10-19T18:41:42;18.30;93.30
22379;DHT22;11357;49.990;7.370;2023-10-19T18:44:07;18.30;93.30
22379;DHT22;11357;49.990;7.370;2023-10-19T18:52:21;18.30;93.40
22379;DHT22;11357;49.990;7.370;2023-10-19T19:21:24;18.10;93.80
22379;DHT22;11357;49.990;7.370;2023-10-19T19:26:41;18.10;93.90
22379;DHT22;11357;49.990;7.370;2023-10-19T19:29:07;18.20;93.80
22379;DHT22;11357;49.990;7.370;2023-10-19T19:31:33;18.20;93.80
22379;DHT22;11357;49.990;7.370;2023-10-19T19:34:00;18.20;93.90
22379;DHT22;11357;49.990;7.370;2023-10-19T20:02:48;18.20;94.20
22379;DHT22;11357;49.990;7.370;2023-10-19T20:10:45;18.20;94.10
22379;DHT22;11357;49.990;7.370;2023-10-19T20:13:12;18.20;94.20
22379;DHT22;11357;49.990;7.370;2023-10-19T20:15:39;18.20;94.20
22379;DHT22;11357;49.990;7.370;2023-10-19T20:18:07;18.30;94.20
22379;DHT22;11357;49.990;7.370;2023-10-19T20:20:34;18.20;94.20
22379;DHT22;11357;49.990;7.370;2023-10-19T20:23:00;18.30;94.20
22379;DHT22;11357;49.990;7.370;2023-10-19T20:25:29;18.30;94.20
22379;DHT22;11357;49.990;7.370;2023-10-19T20:27:56;18.30;94.20
22379;DHT22;11357;49.990;7.370;2023-10-19T20:30:23;18.30;94.10
22379;DHT22;11357;49.990;7.370;2023-10-19T20:32:50;18.30;94.10
22379;DHT22;11357;49.990;7.370;2023-10-19T20:35:18;18.30;94.10
22379;DHT22;11357;49.990;7.370;2023-10-19T20:37:44;18.30;94.10
22379;DHT22;11357;49.990;7.370;2023-10-19T20:40:10;18.40;94.20
22379;DHT22;11357;49.990;7.370;2023-10-19T20:42:40;18.30;94.10
22379;DHT22;11357;49.990;7.370;2023-10-19T20:45:18;18.40;94.20
22379;DHT22;11357;49.990;7.370;2023-10-19T20:47:52;18.30;94.20
22379;DHT22;11357;49.990;7.370;2023-10-19T20:50:22;18.40;94.20
22379;DHT22;11357;49.990;7.370;2023-10-19T20:52:50;18.40;94.20
22379;DHT22;11357;49.990;7.370;2023-10-19T20:55:16;18.30;94.20
22379;DHT22;11357;49.990;7.370;2023-10-19T20:57:42;18.30;94.20
22379;DHT22;11357;49.990;7.370;2023-10-19T21:00:10;18.30;94.30
22379;DHT22;11357;49.990;7.370;2023-10-19T21:02:37;18.30;94.30
22379;DHT22;11357;49.990;7.370;2023-10-19T21:05:04;18.40;94.30
22379;DHT22;11357;49.990;7.370;2023-10-19T21:07:37;18.40;94.20
22379;DHT22;11357;49.990;7.370;2023-10-19T21:10:03;18.40;94.20
22379;DHT22;11357;49.990;7.370;2023-10-19T21:12:32;18.30;94.20
22379;DHT22;11357;49.990;7.370;2023-10-19T21:14:57;18.30;94.30
22379;DHT22;11357;49.990;7.370;2023-10-19T21:17:23;18.30;94.30
22379;DHT22;11357;49.990;7.370;2023-10-19T21:19:49;18.20;94.40
22379;DHT22;11357;49.990;7.370;2023-10-19T21:22:14;18.20;94.60
22379;DHT22;11357;49.990;7.370;2023-10-19T21:24:41;18.20;94.40
22379;DHT22;11357;49.990;7.370;2023-10-19T21:27:08;18.30;94.50
22379;DHT22;11357;49.990;7.370;2023-10-19T21:29:35;18.30;94.50
22379;DHT22;11357;49.990;7.370;2023-10-19T21:32:01;18.20;94.40
22379;DHT22;11357;49.990;7.370;2023-10-19T21:34:26;18.30;94.40
22379;DHT22;11357;49.990;7.370;2023-10-19T21:36:53;18.20;94.40
22379;DHT22;11357;49.990;7.370;2023-10-19T21:39:18;18.30;94.40
22379;DHT22;11357;49.990;7.370;2023-10-19T21:41:44;18.20;94.40
22379;DHT22;11357;49.990;7.370;2023-10-19T21:44:10;18.20;94.40
22379;DHT22;11357;49.990;7.370;2023-10-19T21:46:36;18.20;94.40
22379;DHT22;11357;49.990;7.370;2023-10-19T21:49:02;18.20;94.40
22379;DHT22;11357;49.990;7.370;2023-10-19T21:51:29;18.20;94.40
22379;DHT22;11357;49.990;7.370;2023-10-19T21:53:55;18.20;94.40
22379;DHT22;11357;49.990;7.370;2023-10-19T21:56:21;18.30;94.50
22379;DHT22;11357;49.990;7.370;2023-10-19T21:58:46;18.30;94.40
22379;DHT22;11357;49.990;7.370;2023-10-19T22:01:14;18.30;94.50
22379;DHT22;11357;49.990;7.370;2023-10-19T22:03:40;18.20;94.40
22379;DHT22;11357;49.990;7.370;2023-10-19T22:06:07;18.30;94.50
22379;DHT22;11357;49.990;7.370;2023-10-19T22:08:33;18.20;94.50
22379;DHT22;11357;49.990;7.370;2023-10-19T22:11:00;18.20;94.50
22379;DHT22;11357;49.990;7.370;2023-10-19T22:13:27;18.20;94.50
22379;DHT22;11357;49.990;7.370;2023-10-19T22:15:53;18.20;94.50
22379;DHT22;11357;49.990;7.370;2023-10-19T22:18:18;18.20;94.50
22379;DHT22;11357;49.990;7.370;2023-10-19T22:20:44;18.20;94.50
22379;DHT22;11357;49.990;7.370;2023-10-19T22:23:11;18.20;94.50
22379;DHT22;11357;49.990;7.370;2023-10-19T22:25:40;18.20;94.50
22379;DHT22;11357;49.990;7.370;2023-10-19T22:28:06;18.10;94.50
22379;DHT22;11357;49.990;7.370;2023-10-19T22:30:32;18.20;94.60
22379;DHT22;11357;49.990;7.370;2023-10-19T22:32:57;18.10;94.60
22379;DHT22;11357;49.990;7.370;2023-10-19T22:35:23;18.10;94.70
22379;DHT22;11357;49.990;7.370;2023-10-19T22:37:49;18.10;94.80
22379;DHT22;11357;49.990;7.370;2023-10-19T22:40:15;18.10;94.80
22379;DHT22;11357;49.990;7.370;2023-10-19T22:42:41;18.10;94.80
22379;DHT22;11357;49.990;7.370;2023-10-19T22:45:07;18.10;94.80
22379;DHT22;11357;49.990;7.370;2023-10-19T22:47:39;18.10;94.80
22379;DHT22;11357;49.990;7.370;2023-10-19T22:50:05;18.10;94.80
22379;DHT22;11357;49.990;7.370;2023-10-19T22:52:37;18.10;94.80
22379;DHT22;11357;49.990;7.370;2023-10-19T22:55:03;18.10;94.80
22379;DHT22;11357;49.990;7.370;2023-10-19T22:57:29;18.10;94.80
22379;DHT22;11357;49.990;7.370;2023-10-19T22:59:55;18.20;94.80
22379;DHT22;11357;49.990;7.370;2023-10-19T23:02:21;18.20;94.80
22379;DHT22;11357;49.990;7.370;2023-10-19T23:04:46;18.20;94.80
22379;DHT22;11357;49.990;7.370;2023-10-19T23:07:12;18.20;94.80
22379;DHT22;11357;49.990;7.370;2023-10-19T23:09:38;18.20;94.80
22379;DHT22;11357;49.990;7.370;2023-10-19T23:12:05;18.20;94.90
22379;DHT22;11357;49.990;7.370;2023-10-19T23:14:40;18.10;94.90
22379;DHT22;11357;49.990;7.370;2023-10-19T23:17:11;18.10;94.90
22379;DHT22;11357;49.990;7.370;2023-10-19T23:19:41;18.10;94.90
22379;DHT22;11357;49.990;7.370;2023-10-19T23:22:10;18.10;94.90
22379;DHT22;11357;49.990;7.370;2023-10-19T23:24:37;18.10;95.00
22379;DHT22;11357;49.990;7.370;2023-10-19T23:27:02;18.10;95.00
22379;DHT22;11357;49.990;7.370;2023-10-19T23:29:29;18.10;95.00
22379;DHT22;11357;49.990;7.370;2023-10-19T23:31:57;18.10;95.00
22379;DHT22;11357;49.990;7.370;2023-10-19T23:34:23;18.10;95.00
22379;DHT22;11357;49.990;7.370;2023-10-19T23:36:49;18.10;95.00
22379;DHT22;11357;49.990;7.370;2023-10-19T23:39:14;18.10;94.90
22379;DHT22;11357;49.990;7.370;2023-10-19T23:41:56;18.10;94.90
22379;DHT22;11357;49.990;7.370;2023-10-19T23:44:23;18.10;94.80
22379;DHT22;11357;49.990;7.370;2023-10-19T23:46:52;18.10;94.90